Denver, Colorado
Traffic Map
Current Weather Conditions
Denver, Colorado
Scattered Clouds
Scattered Clouds
17°
Feels Like: 17°
Wind Chill: 16° Ceiling: Unl
Heat Index: 16° Visibility: 10mi
Dew Point: 13° Wind: 3mph
Humidity: 78% Direction: 180° (S)
Pressure: 30.2in Gusts: 0mph
Raw Report DataKBKF 280658Z 18003KT 10SM SCT220 17/13 A3020 RMK AO2A SLP151 T01650127 402970154
Traffic Incident Summary
Active as of:
Severity:
Category:
InformationThere was an issue retrieving the traffic information for this location. Please try a different location or try again shortly.
Advertisements
Track Severe Weather on mobile